GTI1333 VABB-OMDB
Flight info
| Callsign | GTI1333 |
|---|---|
| Flight time | N/A |
| Altitude | 40000 |
| Route | RAXET2A SAKUN V2 SUGID N571 VUSET A454 PASOV B540 KUPMA/N0392F240 B540 MIVEK P574 IMPED |
| Aircraft | B77L/H-SDE2E3FGHIJ5LORVWXY/LB1D1 |
Departure
| Time | 2026-05-05 11:11 |
|---|---|
| Airport | Chhatrapati Shivaji Maharaj International Airport (VABB) |
Arrival
| Time | N/A |
|---|---|
| Airport | Dubai International Airport (OMDB) |
| Time | Latitude | Longitude | Altitude | Speed | Heading |
|---|---|---|---|---|---|
| 2026-05-05 10:25 | 19.09549 | 72.86805 | 44 ft | 0 kts | 319° |
| 2026-05-05 10:58 | 19.09549 | 72.86806 | 44 ft | 0 kts | 319° |
| 2026-05-05 11:00 | 19.09545 | 72.86809 | 44 ft | 0 kts | 319° |
| 2026-05-05 11:00 | 19.09536 | 72.86818 | 44 ft | 2 kts | 311° |
| 2026-05-05 11:01 | 19.09527 | 72.86831 | 44 ft | 2 kts | 295° |
| 2026-05-05 11:01 | 19.09522 | 72.86845 | 43 ft | 2 kts | 283° |
| 2026-05-05 11:01 | 19.09520 | 72.86861 | 43 ft | 2 kts | 270° |
| 2026-05-05 11:01 | 19.09521 | 72.86877 | 43 ft | 2 kts | 256° |
| 2026-05-05 11:02 | 19.09526 | 72.86891 | 44 ft | 2 kts | 243° |
| 2026-05-05 11:02 | 19.09534 | 72.86904 | 44 ft | 1 kts | 231° |
| 2026-05-05 11:02 | 19.09537 | 72.86909 | 44 ft | 0 kts | 228° |
| 2026-05-05 11:02 | 19.09538 | 72.86909 | 44 ft | 0 kts | 228° |
| 2026-05-05 11:04 | 19.09537 | 72.86910 | 44 ft | 0 kts | 229° |
| 2026-05-05 11:06 | 19.09535 | 72.86907 | 44 ft | 2 kts | 229° |
| 2026-05-05 11:06 | 19.09492 | 72.86853 | 43 ft | 15 kts | 230° |
| 2026-05-05 11:06 | 19.09380 | 72.86871 | 41 ft | 21 kts | 135° |
| 2026-05-05 11:06 | 19.09270 | 72.86980 | 39 ft | 21 kts | 137° |
| 2026-05-05 11:07 | 19.09238 | 72.87114 | 38 ft | 18 kts | 88° |
| 2026-05-05 11:07 | 19.09222 | 72.87242 | 38 ft | 16 kts | 134° |
| 2026-05-05 11:07 | 19.09111 | 72.87262 | 36 ft | 16 kts | 177° |
| 2026-05-05 11:07 | 19.09053 | 72.87334 | 35 ft | 14 kts | 87° |
| 2026-05-05 11:08 | 19.09054 | 72.87441 | 35 ft | 14 kts | 90° |
| 2026-05-05 11:08 | 19.09053 | 72.87549 | 35 ft | 14 kts | 89° |
| 2026-05-05 11:08 | 19.09055 | 72.87659 | 35 ft | 16 kts | 89° |
| 2026-05-05 11:08 | 19.09055 | 72.87777 | 37 ft | 15 kts | 90° |
| 2026-05-05 11:09 | 19.09057 | 72.87887 | 39 ft | 13 kts | 89° |
| 2026-05-05 11:09 | 19.09059 | 72.87981 | 40 ft | 12 kts | 89° |
| 2026-05-05 11:09 | 19.09022 | 72.88044 | 40 ft | 10 kts | 169° |
| 2026-05-05 11:09 | 19.08933 | 72.88048 | 40 ft | 7 kts | 191° |
| 2026-05-05 11:10 | 19.08892 | 72.88010 | 40 ft | 10 kts | 252° |
| 2026-05-05 11:10 | 19.08888 | 72.87889 | 38 ft | 32 kts | 270° |
| 2026-05-05 11:10 | 19.08882 | 72.87376 | 33 ft | 123 kts | 269° |
| 2026-05-05 11:10 | 19.08880 | 72.86119 | 195 ft | 211 kts | 271° |
| 2026-05-05 11:11 | 19.08897 | 72.84627 | 1963 ft | 214 kts | 270° |
| 2026-05-05 11:11 | 19.08869 | 72.83011 | 3177 ft | 242 kts | 269° |
| 2026-05-05 11:11 | 19.08834 | 72.81251 | 4386 ft | 248 kts | 269° |
| 2026-05-05 11:11 | 19.08796 | 72.79389 | 5399 ft | 265 kts | 268° |
| 2026-05-05 11:12 | 19.08754 | 72.77420 | 6516 ft | 277 kts | 268° |
| 2026-05-05 11:12 | 19.08711 | 72.75392 | 7719 ft | 284 kts | 268° |
| 2026-05-05 11:12 | 19.08760 | 72.73323 | 8840 ft | 292 kts | 276° |
| 2026-05-05 11:12 | 19.09052 | 72.71213 | 9999 ft | 298 kts | 277° |
| 2026-05-05 11:13 | 19.09342 | 72.69026 | 10987 ft | 311 kts | 276° |
| 2026-05-05 11:13 | 19.09612 | 72.66698 | 11900 ft | 327 kts | 276° |
| 2026-05-05 11:13 | 19.09878 | 72.64266 | 12812 ft | 342 kts | 276° |
| 2026-05-05 11:13 | 19.10147 | 72.61765 | 13705 ft | 356 kts | 276° |
| 2026-05-05 11:14 | 19.10431 | 72.59130 | 14639 ft | 370 kts | 277° |
| 2026-05-05 11:14 | 19.10725 | 72.56392 | 15504 ft | 385 kts | 277° |
| 2026-05-05 11:14 | 19.11033 | 72.53522 | 16354 ft | 399 kts | 277° |
| 2026-05-05 11:14 | 19.11345 | 72.50610 | 17276 ft | 410 kts | 278° |
| 2026-05-05 11:15 | 19.11670 | 72.47568 | 18289 ft | 417 kts | 278° |
| 2026-05-05 11:15 | 19.11994 | 72.44541 | 19313 ft | 420 kts | 278° |
| 2026-05-05 11:15 | 19.12318 | 72.41495 | 20247 ft | 425 kts | 279° |
| 2026-05-05 11:15 | 19.12650 | 72.38378 | 21144 ft | 429 kts | 279° |
| 2026-05-05 11:16 | 19.12984 | 72.35241 | 21981 ft | 434 kts | 279° |
| 2026-05-05 11:16 | 19.13319 | 72.32086 | 22844 ft | 438 kts | 279° |
| 2026-05-05 11:16 | 19.13659 | 72.28871 | 23671 ft | 443 kts | 278° |
| 2026-05-05 11:16 | 19.14003 | 72.25628 | 24463 ft | 449 kts | 278° |
| 2026-05-05 11:17 | 19.14348 | 72.22352 | 25250 ft | 454 kts | 278° |
| 2026-05-05 11:17 | 19.14698 | 72.19038 | 26060 ft | 459 kts | 278° |
| 2026-05-05 11:17 | 19.15048 | 72.15703 | 26885 ft | 464 kts | 277° |
| 2026-05-05 11:17 | 19.15477 | 72.12300 | 27684 ft | 469 kts | 282° |
| 2026-05-05 11:18 | 19.16332 | 72.08983 | 28472 ft | 473 kts | 290° |
| 2026-05-05 11:18 | 19.17661 | 72.05788 | 29282 ft | 478 kts | 297° |
| 2026-05-05 11:18 | 19.19198 | 72.02710 | 30332 ft | 477 kts | 297° |
| 2026-05-05 11:18 | 19.20734 | 71.99672 | 31642 ft | 470 kts | 297° |
| 2026-05-05 11:19 | 19.22251 | 71.96668 | 32978 ft | 462 kts | 297° |
| 2026-05-05 11:19 | 19.23759 | 71.93677 | 34156 ft | 459 kts | 297° |
| 2026-05-05 11:19 | 19.25245 | 71.90730 | 35206 ft | 457 kts | 297° |
| 2026-05-05 11:19 | 19.26751 | 71.87736 | 36184 ft | 456 kts | 297° |
| 2026-05-05 11:20 | 19.28234 | 71.84788 | 37071 ft | 455 kts | 298° |
| 2026-05-05 11:20 | 19.29722 | 71.81827 | 37879 ft | 454 kts | 297° |
| 2026-05-05 11:20 | 19.31179 | 71.78925 | 38653 ft | 452 kts | 298° |
| 2026-05-05 11:20 | 19.32653 | 71.75988 | 39342 ft | 452 kts | 298° |
| 2026-05-05 11:21 | 19.34119 | 71.73063 | 39846 ft | 453 kts | 298° |
| 2026-05-05 11:21 | 19.37085 | 71.67144 | 39820 ft | 453 kts | 298° |
| 2026-05-05 11:22 | 19.40034 | 71.61253 | 39824 ft | 453 kts | 298° |
| 2026-05-05 11:22 | 19.42977 | 71.55368 | 39827 ft | 453 kts | 298° |
| 2026-05-05 11:23 | 19.45909 | 71.49498 | 39826 ft | 453 kts | 298° |
| 2026-05-05 11:23 | 19.48866 | 71.43573 | 39826 ft | 457 kts | 298° |
| 2026-05-05 11:24 | 19.51875 | 71.37537 | 39820 ft | 466 kts | 298° |
| 2026-05-05 11:24 | 19.54884 | 71.31496 | 39824 ft | 464 kts | 297° |
| 2026-05-05 11:25 | 19.57884 | 71.25465 | 39826 ft | 464 kts | 297° |
| 2026-05-05 11:25 | 19.60786 | 71.19366 | 39817 ft | 464 kts | 291° |
| 2026-05-05 11:26 | 19.62880 | 71.12914 | 39823 ft | 465 kts | 289° |
| 2026-05-05 11:26 | 19.64911 | 71.06412 | 39817 ft | 466 kts | 288° |
| 2026-05-05 11:27 | 19.66948 | 70.99884 | 39808 ft | 465 kts | 289° |
| 2026-05-05 11:27 | 19.68964 | 70.93418 | 39814 ft | 466 kts | 289° |
| 2026-05-05 11:28 | 19.70998 | 70.86887 | 39811 ft | 465 kts | 289° |
| 2026-05-05 11:28 | 19.73021 | 70.80378 | 39815 ft | 465 kts | 289° |
| 2026-05-05 11:29 | 19.75039 | 70.73880 | 39824 ft | 465 kts | 289° |
| 2026-05-05 11:29 | 19.77049 | 70.67399 | 39832 ft | 466 kts | 289° |
| 2026-05-05 11:30 | 19.79070 | 70.60872 | 39835 ft | 466 kts | 289° |
| 2026-05-05 11:30 | 19.81083 | 70.54363 | 39836 ft | 466 kts | 289° |
| 2026-05-05 11:31 | 19.83103 | 70.47819 | 39828 ft | 466 kts | 289° |
| 2026-05-05 11:31 | 19.85073 | 70.41278 | 39824 ft | 466 kts | 284° |
| 2026-05-05 11:32 | 19.85772 | 70.34441 | 39819 ft | 469 kts | 268° |
| 2026-05-05 11:32 | 19.84593 | 70.27662 | 39829 ft | 472 kts | 253° |
| 2026-05-05 11:33 | 19.82539 | 70.21065 | 39830 ft | 472 kts | 253° |
| 2026-05-05 11:33 | 19.80457 | 70.14463 | 39830 ft | 472 kts | 253° |
| 2026-05-05 11:34 | 19.78377 | 70.07889 | 39828 ft | 472 kts | 253° |
| 2026-05-05 11:34 | 19.76284 | 70.01287 | 39828 ft | 472 kts | 253° |
| 2026-05-05 11:35 | 19.74196 | 69.94709 | 39833 ft | 473 kts | 253° |
| 2026-05-05 11:35 | 19.72106 | 69.88139 | 39834 ft | 473 kts | 253° |
| 2026-05-05 11:36 | 19.69993 | 69.81507 | 39829 ft | 473 kts | 253° |
| 2026-05-05 11:36 | 19.67893 | 69.74922 | 39830 ft | 473 kts | 253° |
| 2026-05-05 11:37 | 19.65790 | 69.68341 | 39824 ft | 474 kts | 253° |
| 2026-05-05 11:37 | 19.63671 | 69.61717 | 39824 ft | 474 kts | 253° |
| 2026-05-05 11:38 | 19.61559 | 69.55123 | 39824 ft | 474 kts | 252° |
| 2026-05-05 11:38 | 19.59442 | 69.48526 | 39826 ft | 473 kts | 252° |
| 2026-05-05 11:39 | 19.57454 | 69.41888 | 39827 ft | 472 kts | 259° |
| 2026-05-05 11:39 | 19.56994 | 69.34988 | 39826 ft | 471 kts | 275° |
| 2026-05-05 11:40 | 19.58430 | 69.28291 | 39828 ft | 470 kts | 292° |
| 2026-05-05 11:40 | 19.61279 | 69.22055 | 39825 ft | 470 kts | 297° |
| 2026-05-05 11:41 | 19.64250 | 69.15896 | 39827 ft | 470 kts | 297° |
| 2026-05-05 11:41 | 19.67218 | 69.09727 | 39825 ft | 471 kts | 297° |
| 2026-05-05 11:42 | 19.70172 | 69.03574 | 39828 ft | 471 kts | 297° |
| 2026-05-05 11:42 | 19.73138 | 68.97385 | 39826 ft | 471 kts | 297° |
| 2026-05-05 11:43 | 19.76108 | 68.91180 | 39830 ft | 471 kts | 297° |
| 2026-05-05 11:43 | 19.79047 | 68.85033 | 39837 ft | 471 kts | 297° |
| 2026-05-05 11:44 | 19.82025 | 68.78796 | 39840 ft | 471 kts | 297° |